createdAt,value
2023-04-12T00:00:43.513Z,4.67
2023-04-12T00:01:43.521Z,4.52
2023-04-12T00:02:43.703Z,4.46
2023-04-12T00:03:43.866Z,4.98
2023-04-12T00:04:43.868Z,4.47
2023-04-12T00:05:43.748Z,4.97
2023-04-12T00:06:43.693Z,4.52
2023-04-12T00:07:43.785Z,4.80
2023-04-12T00:08:43.763Z,4.37
2023-04-12T00:09:43.815Z,4.61
2023-04-12T00:10:43.839Z,4.59
2023-04-12T00:11:43.820Z,4.92
2023-04-12T00:12:43.878Z,4.53
2023-04-12T00:13:43.910Z,4.78
2023-04-12T00:14:43.857Z,4.03
2023-04-12T00:15:43.920Z,4.70
2023-04-12T00:16:43.878Z,4.38
2023-04-12T00:17:43.925Z,3.98
2023-04-12T00:18:43.906Z,5.17
2023-04-12T00:19:43.948Z,3.87
2023-04-12T00:20:43.842Z,4.58
2023-04-12T00:21:43.866Z,4.64
2023-04-12T00:22:43.857Z,4.68
2023-04-12T00:23:43.868Z,4.89
2023-04-12T00:24:43.815Z,5.28
2023-04-12T00:25:43.799Z,5.62
2023-04-12T00:26:43.772Z,5.60
2023-04-12T00:27:43.778Z,4.50
2023-04-12T00:28:43.815Z,4.31
2023-04-12T00:29:43.823Z,4.91
2023-04-12T00:30:43.858Z,4.71
2023-04-12T00:31:43.801Z,4.86
2023-04-12T00:32:43.876Z,4.75
2023-04-12T00:33:43.875Z,4.59
2023-04-12T00:34:43.806Z,4.21
2023-04-12T00:35:43.792Z,4.76
2023-04-12T00:36:43.716Z,4.74
2023-04-12T00:37:43.766Z,4.18
2023-04-12T00:38:43.708Z,3.91
2023-04-12T00:39:43.772Z,4.91
2023-04-12T00:40:43.703Z,4.81
2023-04-12T00:41:43.705Z,5.10
2023-04-12T00:42:43.743Z,5.90
2023-04-12T00:43:43.742Z,5.26
2023-04-12T00:44:43.743Z,5.37
2023-04-12T00:45:43.772Z,4.73
2023-04-12T00:46:44.560Z,5.31
2023-04-12T00:47:43.944Z,4.45
2023-04-12T00:48:43.894Z,4.58
2023-04-12T00:49:44.597Z,4.50
2023-04-12T00:50:43.961Z,4.61
2023-04-12T00:51:44.025Z,4.92
2023-04-12T00:52:44.108Z,4.36
2023-04-12T00:53:44.106Z,4.06
2023-04-12T00:54:44.174Z,3.96
2023-04-12T00:55:44.155Z,4.43
2023-04-12T00:56:44.189Z,4.18
2023-04-12T00:57:44.197Z,4.69
2023-04-12T00:58:44.216Z,4.65
2023-04-12T00:59:44.334Z,4.90
2023-04-12T01:00:44.382Z,4.59
2023-04-12T01:01:44.399Z,4.56
2023-04-12T01:02:44.616Z,4.34
2023-04-12T01:03:44.606Z,4.45
2023-04-12T01:04:44.480Z,3.94
2023-04-12T01:05:44.508Z,4.15
2023-04-12T01:06:44.574Z,4.31
2023-04-12T01:07:44.645Z,4.54
2023-04-12T01:08:44.702Z,4.05
2023-04-12T01:09:44.718Z,4.32
2023-04-12T01:10:44.756Z,4.07
2023-04-12T01:11:44.747Z,4.38
2023-04-12T01:12:44.821Z,3.87
2023-04-12T01:13:44.835Z,3.59
2023-04-12T01:14:44.827Z,3.28
2023-04-12T01:15:44.831Z,3.67
2023-04-12T01:16:44.957Z,3.30
2023-04-12T01:17:44.978Z,4.09
2023-04-12T01:18:44.890Z,3.64
2023-04-12T01:19:44.986Z,3.56
2023-04-12T01:20:45.051Z,3.57
2023-04-12T01:21:45.077Z,3.78
2023-04-12T01:22:45.018Z,3.62
2023-04-12T01:23:45.055Z,3.68
2023-04-12T01:24:45.083Z,4.26
2023-04-12T01:25:45.240Z,3.89
2023-04-12T01:26:45.168Z,3.72
2023-04-12T01:27:45.215Z,3.92
2023-04-12T01:28:45.233Z,7.00
2023-04-12T01:29:45.363Z,4.60
2023-04-12T01:30:45.897Z,4.39
2023-04-12T01:31:45.381Z,3.69
2023-04-12T01:32:45.407Z,4.07
2023-04-12T01:33:45.390Z,3.96
2023-04-12T01:34:45.424Z,4.17
2023-04-12T01:35:45.520Z,4.73
2023-04-12T01:36:45.412Z,4.49
2023-04-12T01:37:45.507Z,3.77
2023-04-12T01:38:45.403Z,4.15
2023-04-12T01:39:45.405Z,4.16
2023-04-12T01:40:45.409Z,4.91
2023-04-12T01:41:45.485Z,4.39
2023-04-12T01:42:45.376Z,3.83
2023-04-12T01:43:45.445Z,4.33
2023-04-12T01:44:45.359Z,3.79
2023-04-12T01:45:45.391Z,3.96
2023-04-12T01:46:46.129Z,4.29
2023-04-12T01:47:45.458Z,3.93
2023-04-12T01:48:45.370Z,3.78
2023-04-12T01:49:45.392Z,4.47
2023-04-12T01:50:45.360Z,3.63
2023-04-12T01:51:45.338Z,4.62
2023-04-12T01:52:45.399Z,4.00
2023-04-12T01:53:45.418Z,4.26
2023-04-12T01:54:45.304Z,3.96
2023-04-12T01:55:45.262Z,4.13
2023-04-12T01:56:45.284Z,3.62
2023-04-12T01:57:45.379Z,4.00
2023-04-12T01:58:45.462Z,4.15
2023-04-12T01:59:45.452Z,4.71
2023-04-12T02:00:45.517Z,4.82
2023-04-12T02:01:45.518Z,4.64
2023-04-12T02:02:45.674Z,4.33
2023-04-12T02:03:45.615Z,4.09
2023-04-12T02:04:45.490Z,4.74
2023-04-12T02:05:45.616Z,4.05
2023-04-12T02:06:45.624Z,3.80
2023-04-12T02:07:45.701Z,3.69
2023-04-12T02:08:45.710Z,3.86
2023-04-12T02:09:45.840Z,3.28
2023-04-12T02:10:45.866Z,4.22
2023-04-12T02:11:45.990Z,3.64
2023-04-12T02:12:46.046Z,3.53
2023-04-12T02:13:45.973Z,4.04
2023-04-12T02:14:46.012Z,3.94
2023-04-12T02:15:46.087Z,3.80
2023-04-12T02:16:46.279Z,4.25
2023-04-12T02:17:46.335Z,3.81
2023-04-12T02:18:46.219Z,3.53
2023-04-12T02:19:46.364Z,3.48
2023-04-12T02:20:46.367Z,3.97
2023-04-12T02:21:46.420Z,3.70
2023-04-12T02:22:46.378Z,3.76
2023-04-12T02:23:46.373Z,4.10
2023-04-12T02:24:46.471Z,4.30
2023-04-12T02:25:46.450Z,4.60
2023-04-12T02:26:46.425Z,4.20
2023-04-12T02:27:46.427Z,3.95
2023-04-12T02:28:46.401Z,4.46
2023-04-12T02:29:46.480Z,4.05
2023-04-12T02:30:46.596Z,5.05
2023-04-12T02:31:46.557Z,4.07
2023-04-12T02:32:46.568Z,4.14
2023-04-12T02:33:46.660Z,3.66
2023-04-12T02:34:46.659Z,4.25
2023-04-12T02:35:46.856Z,4.34
2023-04-12T02:36:46.778Z,4.23
2023-04-12T02:37:46.863Z,3.99
2023-04-12T02:38:46.886Z,3.88
2023-04-12T02:39:46.867Z,4.15
2023-04-12T02:40:46.822Z,4.54
2023-04-12T02:41:46.791Z,3.96
2023-04-12T02:42:46.889Z,4.69
2023-04-12T02:43:46.876Z,3.90
2023-04-12T02:44:46.840Z,3.90
2023-04-12T02:45:46.893Z,3.84
2023-04-12T02:46:46.846Z,4.26
2023-04-12T02:47:47.238Z,4.61
2023-04-12T02:48:46.864Z,4.14
2023-04-12T02:49:46.916Z,3.85
2023-04-12T02:50:46.992Z,4.47
2023-04-12T02:51:47.106Z,4.15
2023-04-12T02:52:47.152Z,4.09
2023-04-12T02:53:47.144Z,4.59
2023-04-12T02:54:47.229Z,4.41
2023-04-12T02:55:47.188Z,4.60
2023-04-12T02:56:47.196Z,4.28
2023-04-12T02:57:47.203Z,4.49
2023-04-12T02:58:47.216Z,4.41
2023-04-12T02:59:47.276Z,4.44
2023-04-12T03:00:47.231Z,4.43
2023-04-12T03:01:47.335Z,4.82
2023-04-12T03:02:47.319Z,4.26
2023-04-12T03:03:47.355Z,4.65
2023-04-12T03:04:47.255Z,5.32
2023-04-12T03:05:47.269Z,4.07
2023-04-12T03:06:47.246Z,3.50
2023-04-12T03:07:47.299Z,4.23
2023-04-12T03:08:47.335Z,4.25
2023-04-12T03:09:47.297Z,3.91
2023-04-12T03:10:47.362Z,4.62
2023-04-12T03:11:47.380Z,4.37
2023-04-12T03:12:47.344Z,4.23
2023-04-12T03:13:47.308Z,4.36
2023-04-12T03:14:47.377Z,4.08
2023-04-12T03:15:47.365Z,3.97
2023-04-12T03:16:47.373Z,5.07
2023-04-12T03:17:47.356Z,4.47
2023-04-12T03:18:47.246Z,5.03
2023-04-12T03:19:47.324Z,5.09
2023-04-12T03:20:47.908Z,4.25
2023-04-12T03:21:47.320Z,4.38
2023-04-12T03:22:47.248Z,5.05
2023-04-12T03:23:47.264Z,4.43
2023-04-12T03:24:47.322Z,4.48
2023-04-12T03:25:47.228Z,4.61
2023-04-12T03:26:47.273Z,5.18
2023-04-12T03:27:47.188Z,4.69
2023-04-12T03:28:47.221Z,4.29
2023-04-12T03:29:47.274Z,4.73
2023-04-12T03:30:47.231Z,4.51
2023-04-12T03:31:47.203Z,4.79
2023-04-12T03:32:48.257Z,4.58
2023-04-12T03:33:47.196Z,4.82
2023-04-12T03:34:47.211Z,5.22
2023-04-12T03:35:47.282Z,4.89
2023-04-12T03:36:47.190Z,4.37
2023-04-12T03:37:47.087Z,4.60
2023-04-12T03:38:47.061Z,4.34
2023-04-12T03:39:47.066Z,4.96
2023-04-12T03:40:47.074Z,4.64
2023-04-12T03:41:47.105Z,4.36
2023-04-12T03:42:47.090Z,4.12
2023-04-12T03:43:47.129Z,4.89
2023-04-12T03:44:47.094Z,4.94
2023-04-12T03:45:47.153Z,4.60
2023-04-12T03:46:47.074Z,4.46
2023-04-12T03:47:47.045Z,4.46
2023-04-12T03:48:47.055Z,4.83
2023-04-12T03:49:57.560Z,4.60
2023-04-12T03:50:47.008Z,4.74
2023-04-12T03:51:47.075Z,4.56
2023-04-12T03:52:47.048Z,4.53
2023-04-12T03:53:47.003Z,4.65
2023-04-12T03:54:46.987Z,4.72
2023-04-12T03:55:46.994Z,4.66
2023-04-12T03:56:47.007Z,4.32
2023-04-12T03:57:46.988Z,3.96
2023-04-12T03:58:48.019Z,4.39
2023-04-12T03:59:47.005Z,4.74
2023-04-12T04:00:46.997Z,4.28
2023-04-12T04:01:47.075Z,4.46
2023-04-12T04:02:47.052Z,4.27
2023-04-12T04:03:47.162Z,4.91
2023-04-12T04:04:46.964Z,3.95
2023-04-12T04:05:46.961Z,4.66
2023-04-12T04:06:46.993Z,4.43
2023-04-12T04:07:47.025Z,3.85
2023-04-12T04:08:46.953Z,3.86
2023-04-12T04:09:46.955Z,4.15
2023-04-12T04:10:46.878Z,3.75
2023-04-12T04:11:46.891Z,4.13
2023-04-12T04:12:46.948Z,4.49
2023-04-12T04:13:46.900Z,5.80
2023-04-12T04:14:46.895Z,4.18
2023-04-12T04:15:46.868Z,4.73
2023-04-12T04:16:46.992Z,3.94
2023-04-12T04:17:46.866Z,3.17
2023-04-12T04:18:46.956Z,3.50
2023-04-12T04:19:46.843Z,3.70
2023-04-12T04:20:46.846Z,3.33
2023-04-12T04:21:46.881Z,3.94
2023-04-12T04:22:46.823Z,3.57
2023-04-12T04:23:46.922Z,4.16
2023-04-12T04:24:46.878Z,4.03
2023-04-12T04:25:46.821Z,4.02
2023-04-12T04:26:46.866Z,6.05
2023-04-12T04:27:46.793Z,4.82
2023-04-12T04:28:46.791Z,6.78
2023-04-12T04:29:46.856Z,6.34
2023-04-12T04:30:46.865Z,4.50
2023-04-12T04:31:46.858Z,5.43
2023-04-12T04:32:46.770Z,5.00
2023-04-12T04:33:46.774Z,6.01
2023-04-12T04:34:46.798Z,5.44
2023-04-12T04:35:46.805Z,4.95
2023-04-12T04:36:46.741Z,4.94
2023-04-12T04:37:46.765Z,4.73
2023-04-12T04:38:46.778Z,4.79
2023-04-12T04:39:46.841Z,4.73
2023-04-12T04:40:46.785Z,5.34
2023-04-12T04:41:46.997Z,5.52
2023-04-12T04:42:46.745Z,5.97
2023-04-12T04:43:46.960Z,6.30
2023-04-12T04:44:46.712Z,5.85
2023-04-12T04:45:46.738Z,5.02
2023-04-12T04:46:46.731Z,6.14
2023-04-12T04:47:46.762Z,6.23
2023-04-12T04:48:46.758Z,6.35
2023-04-12T04:49:46.738Z,6.14
2023-04-12T04:50:46.729Z,6.05
2023-04-12T04:51:46.728Z,6.39
2023-04-12T04:52:46.677Z,6.58
2023-04-12T04:53:46.764Z,6.39
2023-04-12T04:54:46.669Z,7.00
2023-04-12T04:55:46.792Z,6.67
2023-04-12T04:56:46.699Z,6.33
2023-04-12T04:57:46.760Z,7.51
2023-04-12T04:58:46.728Z,6.76
2023-04-12T04:59:46.668Z,6.98
2023-04-12T05:02:06.210Z,12.68
2023-04-12T05:03:06.284Z,7.35
2023-04-12T05:04:06.297Z,8.83
2023-04-12T05:05:06.152Z,8.46
2023-04-12T05:06:06.136Z,8.88
2023-04-12T05:07:06.147Z,7.92
2023-04-12T05:08:06.145Z,7.07
2023-04-12T05:09:06.168Z,7.36
2023-04-12T05:10:06.195Z,7.71
2023-04-12T05:11:06.176Z,7.19
2023-04-12T05:12:06.212Z,6.98
2023-04-12T05:13:06.300Z,6.49
2023-04-12T05:14:06.220Z,6.41
2023-04-12T05:15:11.603Z,6.99
2023-04-12T05:17:33.776Z,7.54
2023-04-12T05:18:26.096Z,6.76
2023-04-12T05:19:26.124Z,6.78
2023-04-12T05:20:26.119Z,6.48
2023-04-12T05:22:53.341Z,7.46
2023-04-12T05:23:45.750Z,7.53
2023-04-12T05:24:45.707Z,7.11
2023-04-12T05:25:45.717Z,6.07
2023-04-12T05:26:45.696Z,7.24
2023-04-12T05:27:45.718Z,6.94
2023-04-12T05:28:45.678Z,7.02
2023-04-12T05:29:45.689Z,7.08
2023-04-12T05:30:45.689Z,6.88
2023-04-12T05:31:45.660Z,6.31
2023-04-12T05:32:45.625Z,6.60
2023-04-12T05:33:46.392Z,6.39
2023-04-12T05:34:45.773Z,6.76
2023-04-12T05:35:45.647Z,6.24
2023-04-12T05:36:45.557Z,6.86
2023-04-12T05:37:45.586Z,5.68
2023-04-12T05:38:46.109Z,6.57
2023-04-12T05:39:45.598Z,6.25
2023-04-12T05:40:45.615Z,6.26
2023-04-12T05:41:46.565Z,6.20
2023-04-12T05:42:45.580Z,7.02
2023-04-12T05:43:46.320Z,7.15
2023-04-12T05:44:46.527Z,8.11
2023-04-12T05:47:13.138Z,6.13
2023-04-12T05:48:06.140Z,7.36
2023-04-12T05:49:05.846Z,6.24
2023-04-12T05:50:07.008Z,6.98
2023-04-12T05:51:06.302Z,7.58
2023-04-12T05:52:05.521Z,8.20
2023-04-12T05:53:05.431Z,6.63
2023-04-12T05:54:06.288Z,7.24
2023-04-12T05:55:05.540Z,7.08
2023-04-12T05:56:05.548Z,6.88
2023-04-12T05:57:05.409Z,6.81
2023-04-12T05:58:05.441Z,6.52
2023-04-12T05:59:05.410Z,6.98
2023-04-12T06:00:05.593Z,6.06
2023-04-12T06:01:05.490Z,6.74
2023-04-12T06:02:05.444Z,6.74
2023-04-12T06:03:05.542Z,7.58
2023-04-12T06:04:05.596Z,6.50
2023-04-12T06:05:05.646Z,7.10
2023-04-12T06:06:05.462Z,6.46
2023-04-12T06:07:05.380Z,6.79
2023-04-12T06:08:05.460Z,6.73
2023-04-12T06:09:05.370Z,5.86
2023-04-12T06:10:05.836Z,6.55
2023-04-12T06:11:06.302Z,6.21
2023-04-12T06:12:05.394Z,6.56
2023-04-12T06:13:05.396Z,6.53
2023-04-12T06:14:05.505Z,6.41
2023-04-12T06:15:06.318Z,6.37
2023-04-12T06:16:05.436Z,6.43
2023-04-12T06:17:05.408Z,6.52
2023-04-12T06:18:05.515Z,6.26
2023-04-12T06:19:06.640Z,7.31
2023-04-12T06:20:06.306Z,7.74
2023-04-12T06:21:05.455Z,6.92
2023-04-12T06:22:05.411Z,7.16
2023-04-12T06:23:05.463Z,7.50
2023-04-12T06:24:05.485Z,7.07
2023-04-12T06:25:05.982Z,7.45
2023-04-12T06:26:06.309Z,6.86
2023-04-12T06:27:05.392Z,7.82
2023-04-12T06:28:05.487Z,7.35
2023-04-12T06:29:05.457Z,7.51
2023-04-12T06:30:06.577Z,7.82
2023-04-12T06:31:05.481Z,7.31
2023-04-12T06:32:05.918Z,7.12
2023-04-12T06:33:05.421Z,6.82
2023-04-12T06:34:05.457Z,7.12
2023-04-12T06:35:05.297Z,7.31
2023-04-12T06:36:05.264Z,7.86
2023-04-12T06:37:06.308Z,7.92
2023-04-12T06:38:05.448Z,7.53
2023-04-12T06:39:05.718Z,6.84
2023-04-12T06:40:05.813Z,7.68
2023-04-12T06:41:05.611Z,7.03
2023-04-12T06:42:05.579Z,7.11
2023-04-12T06:43:05.540Z,7.61
2023-04-12T06:44:05.587Z,8.40
2023-04-12T06:45:05.703Z,7.17
2023-04-12T06:46:05.618Z,7.75
2023-04-12T06:47:05.737Z,7.85
2023-04-12T06:48:05.525Z,7.62
2023-04-12T06:49:05.654Z,7.54
2023-04-12T06:50:06.295Z,7.90
2023-04-12T06:51:05.548Z,8.39
2023-04-12T06:52:05.421Z,8.37
2023-04-12T06:53:05.498Z,8.05
2023-04-12T06:54:05.507Z,8.57
2023-04-12T06:55:05.541Z,9.28
2023-04-12T06:56:05.454Z,9.41
2023-04-12T06:57:05.486Z,8.94
2023-04-12T06:58:06.296Z,9.49
2023-04-12T06:59:05.476Z,9.41
2023-04-12T07:00:05.937Z,12.42
2023-04-12T07:01:05.618Z,10.29
2023-04-12T07:02:05.613Z,9.12
2023-04-12T07:03:05.529Z,8.42
2023-04-12T07:04:05.659Z,8.12
2023-04-12T07:05:06.217Z,7.10
2023-04-12T07:06:17.282Z,7.37
2023-04-12T07:07:06.517Z,7.13
2023-04-12T07:08:05.586Z,7.38
2023-04-12T07:09:05.625Z,7.26
2023-04-12T07:10:05.620Z,6.65
2023-04-12T07:11:18.166Z,7.07
2023-04-12T07:12:06.504Z,6.72
2023-04-12T07:13:05.481Z,7.02
2023-04-12T07:14:05.480Z,6.57
2023-04-12T07:15:05.493Z,7.03
2023-04-12T07:16:05.583Z,6.97
2023-04-12T07:17:06.288Z,6.04
2023-04-12T07:18:05.461Z,6.25
2023-04-12T07:19:05.462Z,6.21
2023-04-12T07:20:05.465Z,6.33
2023-04-12T07:21:05.393Z,6.29
2023-04-12T07:22:05.415Z,5.77
2023-04-12T07:23:05.410Z,5.35
2023-04-12T07:24:05.492Z,5.57
2023-04-12T07:25:05.459Z,5.86
2023-04-12T07:26:05.500Z,5.69
2023-04-12T07:27:05.425Z,6.26
2023-04-12T07:28:07.005Z,6.19
2023-04-12T07:29:05.361Z,6.52
2023-04-12T07:30:06.705Z,6.59
2023-04-12T07:31:05.452Z,6.34
2023-04-12T07:32:05.719Z,7.87
2023-04-12T07:33:16.171Z,7.44
2023-04-12T07:34:06.438Z,7.46
2023-04-12T07:35:05.548Z,6.90
2023-04-12T07:36:05.292Z,7.41
2023-04-12T07:37:05.260Z,7.52
2023-04-12T07:38:05.250Z,5.64
2023-04-12T07:39:05.166Z,5.66
2023-04-12T07:40:05.421Z,7.75
2023-04-12T07:41:05.258Z,7.39
2023-04-12T07:42:05.377Z,6.18
2023-04-12T07:43:05.221Z,6.19
2023-04-12T07:44:05.837Z,5.72
2023-04-12T07:45:05.941Z,5.77
2023-04-12T07:46:05.466Z,5.42
2023-04-12T07:47:05.556Z,5.47
2023-04-12T07:48:05.595Z,5.93
2023-04-12T07:49:05.573Z,5.84
2023-04-12T07:50:05.745Z,5.66
2023-04-12T07:51:05.591Z,6.34
2023-04-12T07:52:05.508Z,6.04
2023-04-12T07:53:05.468Z,6.37
2023-04-12T07:54:05.502Z,6.56
2023-04-12T07:55:05.530Z,6.16
2023-04-12T07:56:05.515Z,6.05
2023-04-12T07:57:05.529Z,5.82
2023-04-12T07:58:05.423Z,5.52
2023-04-12T07:59:05.496Z,5.27
2023-04-12T08:00:05.508Z,5.02
2023-04-12T08:01:05.480Z,5.72
2023-04-12T08:02:05.634Z,5.96
2023-04-12T08:03:05.749Z,5.76
2023-04-12T08:04:05.657Z,5.59
2023-04-12T08:05:05.450Z,5.60
2023-04-12T08:06:06.328Z,5.64
2023-04-12T08:07:05.441Z,6.26
2023-04-12T08:08:06.265Z,5.22
2023-04-12T08:09:06.994Z,4.81
2023-04-12T08:10:06.296Z,4.71
2023-04-12T08:11:05.420Z,5.63
2023-04-12T08:12:05.479Z,5.66
2023-04-12T08:13:05.409Z,5.32
2023-04-12T08:14:05.473Z,5.97
2023-04-12T08:15:05.500Z,6.21
2023-04-12T08:16:05.502Z,5.82
2023-04-12T08:17:06.268Z,6.00
2023-04-12T08:18:05.375Z,5.72
2023-04-12T08:19:05.427Z,5.90
2023-04-12T08:20:05.313Z,5.44
2023-04-12T08:21:05.347Z,5.76
2023-04-12T08:22:05.562Z,5.85
2023-04-12T08:23:05.352Z,5.38
2023-04-12T08:24:05.521Z,5.26
2023-04-12T08:25:05.418Z,4.99
2023-04-12T08:26:05.352Z,5.50
2023-04-12T08:27:05.245Z,4.84
2023-04-12T08:28:05.468Z,4.67
2023-04-12T08:29:06.282Z,4.84
2023-04-12T08:30:05.544Z,4.90
2023-04-12T08:31:06.367Z,5.02
2023-04-12T08:32:05.381Z,5.24
2023-04-12T08:33:05.322Z,4.69
2023-04-12T08:34:05.536Z,4.98
2023-04-12T08:35:06.314Z,4.96
2023-04-12T08:36:05.271Z,4.09
2023-04-12T08:37:05.246Z,4.47
2023-04-12T08:38:05.229Z,4.14
2023-04-12T08:39:05.237Z,4.02
2023-04-12T08:40:05.377Z,4.52
2023-04-12T08:41:05.308Z,4.50
2023-04-12T08:42:05.364Z,3.84
2023-04-12T08:43:05.674Z,3.64
2023-04-12T08:44:05.342Z,4.75
2023-04-12T08:45:06.290Z,4.16
2023-04-12T08:46:05.394Z,3.57
2023-04-12T08:47:05.510Z,3.05
2023-04-12T08:48:06.307Z,3.14
2023-04-12T08:49:05.362Z,2.84
2023-04-12T08:50:05.517Z,3.09
2023-04-12T08:51:05.383Z,3.10
2023-04-12T08:52:05.357Z,3.32
2023-04-12T08:53:05.342Z,3.03
2023-04-12T08:54:05.264Z,2.56
2023-04-12T08:55:05.421Z,2.46
2023-04-12T08:56:05.315Z,2.71
2023-04-12T08:57:05.261Z,2.93
2023-04-12T08:58:05.227Z,2.76
2023-04-12T08:59:05.302Z,3.05
2023-04-12T09:00:05.309Z,2.95
2023-04-12T09:01:05.357Z,2.65
2023-04-12T09:02:05.457Z,3.39
2023-04-12T09:03:05.518Z,2.94
2023-04-12T09:04:05.526Z,3.06
2023-04-12T09:05:05.483Z,3.34
2023-04-12T09:06:05.729Z,2.61
2023-04-12T09:07:05.568Z,2.82
2023-04-12T09:08:05.464Z,2.40
2023-04-12T09:09:07.751Z,2.49
2023-04-12T09:10:05.470Z,2.31
2023-04-12T09:11:05.451Z,2.27
2023-04-12T09:12:05.462Z,2.13
2023-04-12T09:13:05.415Z,2.18
2023-04-12T09:14:05.541Z,2.09
2023-04-12T09:15:05.436Z,1.91
2023-04-12T09:16:06.005Z,1.69
2023-04-12T09:17:05.453Z,1.52
2023-04-12T09:18:05.581Z,1.73
2023-04-12T09:19:05.371Z,1.95
2023-04-12T09:20:05.377Z,2.26
2023-04-12T09:21:05.342Z,2.47
2023-04-12T09:22:05.738Z,2.42
2023-04-12T09:23:06.380Z,2.10
2023-04-12T09:24:06.325Z,1.88
2023-04-12T09:25:06.357Z,2.47
2023-04-12T09:26:05.442Z,2.46
2023-04-12T09:27:05.381Z,1.98
2023-04-12T09:28:05.428Z,2.21
2023-04-12T09:29:05.292Z,2.17
2023-04-12T09:30:06.302Z,1.94
2023-04-12T09:31:05.458Z,1.80
2023-04-12T09:32:05.521Z,1.53
2023-04-12T09:33:05.310Z,1.72
2023-04-12T09:34:05.268Z,2.05
2023-04-12T09:35:05.480Z,2.19
2023-04-12T09:36:05.405Z,2.77
2023-04-12T09:37:05.357Z,2.41
2023-04-12T09:38:05.282Z,2.32
2023-04-12T09:39:05.268Z,1.93
2023-04-12T09:40:05.612Z,2.11
2023-04-12T09:41:05.896Z,2.04
2023-04-12T09:42:10.497Z,2.14
2023-04-12T09:43:05.843Z,2.06
2023-04-12T09:44:05.665Z,2.32
2023-04-12T09:45:05.380Z,2.07
2023-04-12T09:46:05.528Z,1.95
2023-04-12T09:47:05.373Z,2.36
2023-04-12T09:48:05.373Z,2.30
2023-04-12T09:49:05.321Z,2.57
2023-04-12T09:50:05.849Z,2.31
2023-04-12T09:51:05.402Z,2.43
2023-04-12T09:52:05.303Z,2.13
2023-04-12T09:53:05.514Z,1.98
2023-04-12T09:54:05.290Z,2.15
2023-04-12T09:55:05.260Z,2.68
2023-04-12T09:56:05.278Z,2.41
2023-04-12T09:57:06.363Z,2.52
2023-04-12T09:58:05.573Z,2.17
2023-04-12T09:59:05.543Z,2.42
2023-04-12T10:00:05.505Z,2.44
2023-04-12T10:01:05.929Z,2.09
2023-04-12T10:02:05.674Z,2.57
2023-04-12T10:03:05.626Z,2.06
2023-04-12T10:04:05.637Z,2.76
2023-04-12T10:05:05.658Z,2.40
2023-04-12T10:06:06.382Z,2.17
2023-04-12T10:07:06.132Z,2.51
2023-04-12T10:08:05.345Z,2.45
2023-04-12T10:09:05.400Z,2.63
2023-04-12T10:10:05.347Z,2.33
2023-04-12T10:11:05.320Z,2.86
2023-04-12T10:12:05.341Z,2.20
2023-04-12T10:13:05.465Z,2.88
2023-04-12T10:14:05.975Z,2.65
2023-04-12T10:15:05.370Z,2.87
2023-04-12T10:16:05.586Z,2.93
2023-04-12T10:17:05.347Z,2.70
2023-04-12T10:18:05.373Z,3.54
2023-04-12T10:19:05.219Z,2.83
2023-04-12T10:20:05.241Z,3.43
2023-04-12T10:21:05.321Z,3.09
2023-04-12T10:22:05.254Z,3.06
2023-04-12T10:23:05.184Z,3.43
2023-04-12T10:24:05.220Z,3.08
2023-04-12T10:25:05.246Z,3.07
2023-04-12T10:26:05.372Z,3.59
2023-04-12T10:27:05.330Z,3.70
2023-04-12T10:28:05.456Z,3.42
2023-04-12T10:29:05.474Z,3.79
2023-04-12T10:30:05.247Z,3.20
2023-04-12T10:31:05.450Z,3.46
2023-04-12T10:32:05.375Z,3.41
2023-04-12T10:33:05.623Z,3.71
2023-04-12T10:34:06.045Z,3.38
2023-04-12T10:35:05.457Z,3.76
2023-04-12T10:36:06.970Z,3.38
2023-04-12T10:37:06.375Z,2.92
2023-04-12T10:38:05.558Z,3.25
2023-04-12T10:39:05.689Z,3.75
2023-04-12T10:40:06.680Z,3.14
2023-04-12T10:41:05.928Z,3.28
2023-04-12T10:42:05.546Z,3.04
2023-04-12T10:43:05.645Z,3.17
2023-04-12T10:44:06.512Z,2.93
2023-04-12T10:45:05.536Z,3.26
2023-04-12T10:46:06.009Z,4.14
2023-04-12T10:47:05.584Z,2.72
2023-04-12T10:48:05.618Z,2.81
2023-04-12T10:49:05.933Z,2.50
2023-04-12T10:50:05.482Z,2.79
2023-04-12T10:51:05.429Z,2.80
2023-04-12T10:52:06.536Z,2.64
2023-04-12T10:53:05.642Z,3.16
2023-04-12T10:54:05.472Z,2.67
2023-04-12T10:55:05.655Z,2.45
2023-04-12T10:56:05.546Z,2.28
2023-04-12T10:57:05.621Z,2.73
2023-04-12T10:58:06.339Z,2.31
2023-04-12T10:59:05.730Z,2.10
2023-04-12T11:00:05.752Z,2.27
2023-04-12T11:01:05.661Z,1.86
2023-04-12T11:02:05.680Z,1.65
2023-04-12T11:03:05.948Z,1.84
2023-04-12T11:04:05.920Z,1.65
2023-04-12T11:05:05.686Z,1.58
2023-04-12T11:06:20.064Z,1.72
2023-04-12T11:07:06.810Z,1.46
2023-04-12T11:08:06.535Z,1.35
2023-04-12T11:09:06.311Z,1.53
2023-04-12T11:10:05.531Z,1.63
2023-04-12T11:11:05.943Z,1.92
2023-04-12T11:12:05.739Z,2.02
2023-04-12T11:13:05.571Z,2.14
2023-04-12T11:14:05.525Z,1.75
2023-04-12T11:15:06.379Z,1.75
2023-04-12T11:16:06.006Z,2.41
2023-04-12T11:17:06.341Z,2.58
2023-04-12T11:18:05.455Z,2.23
2023-04-12T11:19:05.459Z,2.15
2023-04-12T11:20:05.593Z,2.23
2023-04-12T11:21:05.442Z,2.28
2023-04-12T11:22:05.466Z,2.40
2023-04-12T11:23:05.616Z,2.29
2023-04-12T11:24:06.275Z,1.76
2023-04-12T11:25:05.542Z,2.00
2023-04-12T11:26:05.872Z,2.03
2023-04-12T11:27:05.421Z,1.68
2023-04-12T11:28:13.870Z,2.39
2023-04-12T11:29:06.466Z,2.11
2023-04-12T11:30:05.565Z,1.80
2023-04-12T11:31:06.180Z,1.81
2023-04-12T11:32:06.216Z,1.98
2023-04-12T11:33:06.616Z,1.88
2023-04-12T11:34:08.392Z,1.82
2023-04-12T11:35:05.777Z,1.73
2023-04-12T11:36:07.432Z,1.54
2023-04-12T11:37:06.778Z,1.89
2023-04-12T11:38:05.863Z,1.82
2023-04-12T11:39:05.810Z,1.93
2023-04-12T11:40:05.716Z,2.07
2023-04-12T11:41:05.726Z,1.79
2023-04-12T11:42:05.899Z,1.95
2023-04-12T11:43:05.735Z,1.87
2023-04-12T11:44:05.785Z,1.79
2023-04-12T11:45:12.701Z,2.65
2023-04-12T11:46:07.193Z,2.01
2023-04-12T11:47:05.610Z,1.81
2023-04-12T11:48:05.724Z,2.23
2023-04-12T11:49:05.849Z,2.13
2023-04-12T11:50:05.689Z,2.29
2023-04-12T11:51:11.430Z,2.01
2023-04-12T11:52:06.733Z,1.93
2023-04-12T11:53:05.757Z,1.87
2023-04-12T11:54:05.671Z,1.80
2023-04-12T11:55:05.735Z,1.41
2023-04-12T11:56:05.618Z,1.66
2023-04-12T11:57:05.858Z,2.04
2023-04-12T11:58:05.703Z,1.65
2023-04-12T11:59:05.590Z,1.90
2023-04-12T12:00:05.697Z,1.75
2023-04-12T12:01:05.657Z,1.90
2023-04-12T12:02:20.982Z,1.92
2023-04-12T12:03:08.780Z,1.86
2023-04-12T12:04:06.032Z,2.17
2023-04-12T12:05:05.661Z,1.86
2023-04-12T12:06:06.123Z,1.68
2023-04-12T12:07:06.307Z,2.00
2023-04-12T12:08:05.548Z,1.74
2023-04-12T12:09:05.626Z,2.21
2023-04-12T12:10:05.551Z,1.81
2023-04-12T12:11:08.432Z,1.89
2023-04-12T12:12:05.999Z,1.93
2023-04-12T12:13:05.595Z,1.54
2023-04-12T12:14:05.594Z,1.85
2023-04-12T12:15:05.503Z,1.89
2023-04-12T12:16:05.552Z,1.27
2023-04-12T12:17:06.001Z,1.72
2023-04-12T12:18:06.248Z,1.77
2023-04-12T12:19:05.538Z,1.74
2023-04-12T12:20:05.511Z,2.38
2023-04-12T12:21:05.473Z,1.83
2023-04-12T12:22:05.620Z,2.07
2023-04-12T12:23:05.453Z,1.28
2023-04-12T12:24:05.457Z,1.72
2023-04-12T12:25:05.442Z,1.38
2023-04-12T12:26:18.376Z,1.88
2023-04-12T12:27:06.903Z,1.32
2023-04-12T12:28:05.689Z,2.15
2023-04-12T12:29:05.559Z,1.66
2023-04-12T12:30:05.481Z,1.72
2023-04-12T12:31:05.515Z,6.26
2023-04-12T12:32:05.408Z,2.14
2023-04-12T12:33:05.505Z,1.68
2023-04-12T12:34:08.937Z,1.73
2023-04-12T12:35:05.324Z,1.73
2023-04-12T12:36:05.387Z,2.05
2023-04-12T12:37:05.410Z,2.52
2023-04-12T12:38:05.284Z,2.22
2023-04-12T12:39:05.337Z,1.95
2023-04-12T12:40:05.351Z,1.72
2023-04-12T12:41:05.286Z,2.27
2023-04-12T12:42:05.369Z,2.03
2023-04-12T12:43:05.360Z,2.41
2023-04-12T12:44:05.288Z,1.97
2023-04-12T12:45:05.596Z,2.49
2023-04-12T12:46:05.415Z,2.39
2023-04-12T12:47:13.554Z,2.41
2023-04-12T12:48:05.445Z,2.20
2023-04-12T12:49:05.346Z,2.43
2023-04-12T12:50:05.341Z,2.56
2023-04-12T12:51:05.323Z,2.59
2023-04-12T12:52:05.526Z,2.73
2023-04-12T12:53:05.341Z,2.67
2023-04-12T12:54:05.259Z,2.40
2023-04-12T12:55:05.218Z,2.57
2023-04-12T12:56:05.259Z,2.51
2023-04-12T12:57:05.260Z,2.66
2023-04-12T12:58:08.458Z,2.75
2023-04-12T12:59:05.284Z,3.05
2023-04-12T13:00:05.181Z,2.88
2023-04-12T13:01:05.285Z,2.81
2023-04-12T13:02:05.427Z,2.72
2023-04-12T13:03:05.526Z,2.77
2023-04-12T13:04:05.230Z,2.48
2023-04-12T13:05:05.248Z,2.90
2023-04-12T13:06:05.272Z,2.42
2023-04-12T13:07:05.136Z,2.50
2023-04-12T13:08:05.178Z,2.52
2023-04-12T13:09:05.246Z,2.48
2023-04-12T13:10:05.264Z,2.53
2023-04-12T13:11:05.175Z,2.63
2023-04-12T13:12:05.183Z,2.95
2023-04-12T13:13:05.690Z,2.63
2023-04-12T13:14:05.198Z,2.68
2023-04-12T13:15:18.126Z,2.52
2023-04-12T13:16:06.235Z,3.48
2023-04-12T13:17:05.148Z,3.43
2023-04-12T13:18:05.842Z,2.91
2023-04-12T13:19:05.153Z,3.11
2023-04-12T13:20:05.138Z,3.49
2023-04-12T13:21:05.134Z,2.73
2023-04-12T13:22:05.107Z,3.52
2023-04-12T13:23:05.129Z,3.74
2023-04-12T13:24:05.143Z,2.90